KFMN/FMN METAR and TAF weather

Enter ICAO airport designator
Station Type Date Time Source
KFMN METAR 2022/09/26 09:53 UTC NOAA

KFMN 260953Z AUTO 09010KT 10SM CLR 16/06 A3031 RMK AO2 SLP206 T01560061


Station Type Date Time Source
KFMN Decoded METAR 2022/09/26 09:53 UTC NOAA

FARMINGTON FOUR CORNERS, NM, United States (KFMN) 36-45N 108-14W 1685M
Sep 26, 2022 - 05:53 AM EDT / 2022.09.26 0953 UTC
Wind: from the E (090 degrees) at 12 MPH (10 KT):0
Visibility: 10 mile(s):0
Sky conditions: clear
Temperature: 60.1 F (15.6 C)
Dew Point: 43.0 F (6.1 C)
Relative Humidity: 53%
Pressure (altimeter): 30.31 in. Hg (1026 hPa)
ob: KFMN 260953Z AUTO 09010KT 10SM CLR 16/06 A3031 RMK AO2 SLP206 T01560061
cycle: 10

Station Type Date Time Source
KFMN TAF 2022/09/26 06:39 UTC NOAA

TAF KFMN 260537Z 2606/2706 08007KT P6SM SCT100
FM262100 21007KT P6SM VCSH BKN090
FM270200 VRB06KT P6SM BKN100

Example: see airport list